sensor_id;sensor_type;location;lat;lon;timestamp;temperature;humidity
38938;DHT22;24727;51.974;20.868;2024-02-15T00:00:13;5.30;99.90
38938;DHT22;24727;51.974;20.868;2024-02-15T00:02:42;5.30;99.90
38938;DHT22;24727;51.974;20.868;2024-02-15T00:05:13;5.30;99.90
38938;DHT22;24727;51.974;20.868;2024-02-15T00:07:42;5.40;99.90
38938;DHT22;24727;51.974;20.868;2024-02-15T00:10:08;5.40;99.90
38938;DHT22;24727;51.974;20.868;2024-02-15T00:12:34;5.40;99.90
38938;DHT22;24727;51.974;20.868;2024-02-15T00:15:00;5.30;99.90
38938;DHT22;24727;51.974;20.868;2024-02-15T00:17:27;5.40;99.90
38938;DHT22;24727;51.974;20.868;2024-02-15T00:19:55;5.40;99.90
38938;DHT22;24727;51.974;20.868;2024-02-15T00:22:21;5.30;99.90
38938;DHT22;24727;51.974;20.868;2024-02-15T00:24:47;5.30;99.90
38938;DHT22;24727;51.974;20.868;2024-02-15T00:27:15;5.40;99.90
38938;DHT22;24727;51.974;20.868;2024-02-15T00:29:41;5.20;99.90
38938;DHT22;24727;51.974;20.868;2024-02-15T00:32:08;5.30;99.90
38938;DHT22;24727;51.974;20.868;2024-02-15T00:34:36;5.20;99.90
38938;DHT22;24727;51.974;20.868;2024-02-15T00:37:04;5.30;99.90
38938;DHT22;24727;51.974;20.868;2024-02-15T00:39:31;5.20;99.90
38938;DHT22;24727;51.974;20.868;2024-02-15T00:41:57;5.20;99.90
38938;DHT22;24727;51.974;20.868;2024-02-15T00:44:26;5.20;99.90
38938;DHT22;24727;51.974;20.868;2024-02-15T00:46:52;5.20;99.90
38938;DHT22;24727;51.974;20.868;2024-02-15T00:49:18;5.20;99.90
38938;DHT22;24727;51.974;20.868;2024-02-15T00:51:46;5.20;99.90
38938;DHT22;24727;51.974;20.868;2024-02-15T00:54:13;5.30;99.90
38938;DHT22;24727;51.974;20.868;2024-02-15T00:56:38;5.20;99.90
38938;DHT22;24727;51.974;20.868;2024-02-15T00:59:05;5.30;99.90
38938;DHT22;24727;51.974;20.868;2024-02-15T01:01:31;5.20;99.90
38938;DHT22;24727;51.974;20.868;2024-02-15T01:03:57;5.20;99.90
38938;DHT22;24727;51.974;20.868;2024-02-15T01:06:23;5.10;1.00
38938;DHT22;24727;51.974;20.868;2024-02-15T01:08:49;5.20;99.90
38938;DHT22;24727;51.974;20.868;2024-02-15T01:11:15;5.10;99.90
38938;DHT22;24727;51.974;20.868;2024-02-15T01:13:42;5.10;99.90
38938;DHT22;24727;51.974;20.868;2024-02-15T01:16:08;5.20;99.90
38938;DHT22;24727;51.974;20.868;2024-02-15T01:18:33;5.30;99.90
38938;DHT22;24727;51.974;20.868;2024-02-15T01:21:00;5.40;99.90
38938;DHT22;24727;51.974;20.868;2024-02-15T01:23:26;5.40;99.90
38938;DHT22;24727;51.974;20.868;2024-02-15T01:25:53;5.30;99.90
38938;DHT22;24727;51.974;20.868;2024-02-15T01:28:18;5.40;99.90
38938;DHT22;24727;51.974;20.868;2024-02-15T01:30:45;5.50;99.90
38938;DHT22;24727;51.974;20.868;2024-02-15T01:33:12;5.50;99.90
38938;DHT22;24727;51.974;20.868;2024-02-15T01:35:38;5.30;99.90
38938;DHT22;24727;51.974;20.868;2024-02-15T01:38:05;5.10;99.90
38938;DHT22;24727;51.974;20.868;2024-02-15T01:40:31;5.10;99.90
38938;DHT22;24727;51.974;20.868;2024-02-15T01:42:57;5.20;99.90
38938;DHT22;24727;51.974;20.868;2024-02-15T01:45:24;5.30;99.90
38938;DHT22;24727;51.974;20.868;2024-02-15T01:47:52;5.30;99.90
38938;DHT22;24727;51.974;20.868;2024-02-15T01:50:18;5.50;99.90
38938;DHT22;24727;51.974;20.868;2024-02-15T01:52:48;5.50;99.90
38938;DHT22;24727;51.974;20.868;2024-02-15T01:55:16;5.60;99.90
38938;DHT22;24727;51.974;20.868;2024-02-15T01:57:44;5.50;99.90
38938;DHT22;24727;51.974;20.868;2024-02-15T02:00:15;5.50;99.90
38938;DHT22;24727;51.974;20.868;2024-02-15T02:02:44;5.40;99.90
38938;DHT22;24727;51.974;20.868;2024-02-15T02:05:11;5.40;99.90
38938;DHT22;24727;51.974;20.868;2024-02-15T02:07:40;5.50;99.90
38938;DHT22;24727;51.974;20.868;2024-02-15T02:10:07;5.50;99.90
38938;DHT22;24727;51.974;20.868;2024-02-15T02:12:34;5.60;99.90
38938;DHT22;24727;51.974;20.868;2024-02-15T02:15:00;5.60;99.90
38938;DHT22;24727;51.974;20.868;2024-02-15T02:17:26;5.60;99.90
38938;DHT22;24727;51.974;20.868;2024-02-15T02:19:51;5.60;99.90
38938;DHT22;24727;51.974;20.868;2024-02-15T02:22:18;5.60;99.90
38938;DHT22;24727;51.974;20.868;2024-02-15T02:27:30;5.50;99.90
38938;DHT22;24727;51.974;20.868;2024-02-15T02:29:57;5.40;99.90
38938;DHT22;24727;51.974;20.868;2024-02-15T02:32:25;5.20;99.90
38938;DHT22;24727;51.974;20.868;2024-02-15T02:34:52;5.20;99.90
38938;DHT22;24727;51.974;20.868;2024-02-15T02:37:24;5.00;99.90
38938;DHT22;24727;51.974;20.868;2024-02-15T02:39:50;5.20;99.90
38938;DHT22;24727;51.974;20.868;2024-02-15T02:42:16;5.40;99.90
38938;DHT22;24727;51.974;20.868;2024-02-15T02:44:42;5.60;99.90
38938;DHT22;24727;51.974;20.868;2024-02-15T02:47:07;5.60;99.90
38938;DHT22;24727;51.974;20.868;2024-02-15T02:49:35;5.70;99.90
38938;DHT22;24727;51.974;20.868;2024-02-15T02:52:01;5.50;99.90
38938;DHT22;24727;51.974;20.868;2024-02-15T02:54:27;5.40;99.90
38938;DHT22;24727;51.974;20.868;2024-02-15T02:56:54;5.40;99.90
38938;DHT22;24727;51.974;20.868;2024-02-15T02:59:20;5.50;99.90
38938;DHT22;24727;51.974;20.868;2024-02-15T03:01:47;5.60;99.90
38938;DHT22;24727;51.974;20.868;2024-02-15T03:04:15;5.50;99.90
38938;DHT22;24727;51.974;20.868;2024-02-15T03:06:43;5.60;99.90
38938;DHT22;24727;51.974;20.868;2024-02-15T03:09:09;5.60;99.90
38938;DHT22;24727;51.974;20.868;2024-02-15T03:11:36;5.50;99.90
38938;DHT22;24727;51.974;20.868;2024-02-15T03:14:02;5.50;99.90
38938;DHT22;24727;51.974;20.868;2024-02-15T03:16:32;5.60;99.90
38938;DHT22;24727;51.974;20.868;2024-02-15T03:18:58;5.70;99.90
38938;DHT22;24727;51.974;20.868;2024-02-15T03:21:23;5.70;99.90
38938;DHT22;24727;51.974;20.868;2024-02-15T03:23:50;5.80;99.90
38938;DHT22;24727;51.974;20.868;2024-02-15T03:26:16;5.80;99.90
38938;DHT22;24727;51.974;20.868;2024-02-15T03:28:41;5.70;99.90
38938;DHT22;24727;51.974;20.868;2024-02-15T03:31:07;5.60;99.90
38938;DHT22;24727;51.974;20.868;2024-02-15T03:33:33;5.60;99.90
38938;DHT22;24727;51.974;20.868;2024-02-15T03:36:01;5.60;99.90
38938;DHT22;24727;51.974;20.868;2024-02-15T03:38:27;5.60;99.90
38938;DHT22;24727;51.974;20.868;2024-02-15T03:40:57;5.50;99.90
38938;DHT22;24727;51.974;20.868;2024-02-15T03:43:23;5.50;99.90
38938;DHT22;24727;51.974;20.868;2024-02-15T03:45:50;5.40;99.90
38938;DHT22;24727;51.974;20.868;2024-02-15T03:48:17;5.50;99.90
38938;DHT22;24727;51.974;20.868;2024-02-15T03:50:43;5.60;99.90
38938;DHT22;24727;51.974;20.868;2024-02-15T03:53:09;5.60;99.90
38938;DHT22;24727;51.974;20.868;2024-02-15T03:55:36;5.60;99.90
38938;DHT22;24727;51.974;20.868;2024-02-15T03:58:02;5.50;99.90
38938;DHT22;24727;51.974;20.868;2024-02-15T04:00:28;5.50;99.90
38938;DHT22;24727;51.974;20.868;2024-02-15T04:02:54;5.50;99.90
38938;DHT22;24727;51.974;20.868;2024-02-15T04:05:22;5.50;99.90
38938;DHT22;24727;51.974;20.868;2024-02-15T04:07:48;5.40;99.90
38938;DHT22;24727;51.974;20.868;2024-02-15T04:10:14;5.20;99.90
38938;DHT22;24727;51.974;20.868;2024-02-15T04:12:43;5.30;99.90
38938;DHT22;24727;51.974;20.868;2024-02-15T04:15:09;5.40;99.90
38938;DHT22;24727;51.974;20.868;2024-02-15T04:17:40;5.40;99.90
38938;DHT22;24727;51.974;20.868;2024-02-15T04:20:09;5.50;99.90
38938;DHT22;24727;51.974;20.868;2024-02-15T04:22:37;5.50;99.90
38938;DHT22;24727;51.974;20.868;2024-02-15T04:25:07;5.50;99.90
38938;DHT22;24727;51.974;20.868;2024-02-15T04:27:36;5.70;99.90
38938;DHT22;24727;51.974;20.868;2024-02-15T04:30:02;5.80;99.90
38938;DHT22;24727;51.974;20.868;2024-02-15T04:32:28;5.50;99.90
38938;DHT22;24727;51.974;20.868;2024-02-15T04:34:58;5.30;99.90
38938;DHT22;24727;51.974;20.868;2024-02-15T04:37:43;5.30;99.90
38938;DHT22;24727;51.974;20.868;2024-02-15T04:40:09;5.40;99.90
38938;DHT22;24727;51.974;20.868;2024-02-15T04:42:39;5.40;99.90
38938;DHT22;24727;51.974;20.868;2024-02-15T04:45:06;5.40;99.90
38938;DHT22;24727;51.974;20.868;2024-02-15T04:47:36;5.40;99.90
38938;DHT22;24727;51.974;20.868;2024-02-15T04:50:02;5.50;99.90
38938;DHT22;24727;51.974;20.868;2024-02-15T04:52:29;5.50;99.90
38938;DHT22;24727;51.974;20.868;2024-02-15T04:54:55;5.30;99.90
38938;DHT22;24727;51.974;20.868;2024-02-15T04:57:24;5.50;99.90
38938;DHT22;24727;51.974;20.868;2024-02-15T04:59:51;5.50;99.90
38938;DHT22;24727;51.974;20.868;2024-02-15T05:02:17;5.50;99.90
38938;DHT22;24727;51.974;20.868;2024-02-15T05:04:43;5.40;99.90
38938;DHT22;24727;51.974;20.868;2024-02-15T05:07:11;5.50;99.90
38938;DHT22;24727;51.974;20.868;2024-02-15T05:09:41;5.50;99.90
38938;DHT22;24727;51.974;20.868;2024-02-15T05:12:07;5.20;99.90
38938;DHT22;24727;51.974;20.868;2024-02-15T05:14:33;5.20;99.90
38938;DHT22;24727;51.974;20.868;2024-02-15T05:17:01;5.30;99.90
38938;DHT22;24727;51.974;20.868;2024-02-15T05:19:27;5.40;99.90
38938;DHT22;24727;51.974;20.868;2024-02-15T05:21:55;5.60;99.90
38938;DHT22;24727;51.974;20.868;2024-02-15T05:24:21;5.60;99.90
38938;DHT22;24727;51.974;20.868;2024-02-15T05:26:47;5.50;99.90
38938;DHT22;24727;51.974;20.868;2024-02-15T05:29:14;5.40;99.90
38938;DHT22;24727;51.974;20.868;2024-02-15T05:31:40;5.50;99.90
38938;DHT22;24727;51.974;20.868;2024-02-15T05:34:07;5.50;99.90
38938;DHT22;24727;51.974;20.868;2024-02-15T05:36:33;5.50;99.90
38938;DHT22;24727;51.974;20.868;2024-02-15T05:39:00;5.60;99.90
38938;DHT22;24727;51.974;20.868;2024-02-15T05:41:28;5.60;99.90
38938;DHT22;24727;51.974;20.868;2024-02-15T05:43:54;5.40;99.90
38938;DHT22;24727;51.974;20.868;2024-02-15T05:46:20;5.40;99.90
38938;DHT22;24727;51.974;20.868;2024-02-15T05:48:49;5.40;99.90
38938;DHT22;24727;51.974;20.868;2024-02-15T05:51:17;5.50;99.90
38938;DHT22;24727;51.974;20.868;2024-02-15T05:53:43;5.60;99.90
38938;DHT22;24727;51.974;20.868;2024-02-15T05:56:09;5.60;99.90
38938;DHT22;24727;51.974;20.868;2024-02-15T05:58:39;5.60;99.90
38938;DHT22;24727;51.974;20.868;2024-02-15T06:01:07;5.60;99.90
38938;DHT22;24727;51.974;20.868;2024-02-15T06:03:37;5.60;99.90
38938;DHT22;24727;51.974;20.868;2024-02-15T06:06:07;5.70;99.90
38938;DHT22;24727;51.974;20.868;2024-02-15T06:08:36;5.60;99.90
38938;DHT22;24727;51.974;20.868;2024-02-15T06:11:03;5.60;99.90
38938;DHT22;24727;51.974;20.868;2024-02-15T06:13:31;5.50;99.90
38938;DHT22;24727;51.974;20.868;2024-02-15T06:15:57;5.30;99.90
38938;DHT22;24727;51.974;20.868;2024-02-15T06:18:28;5.50;99.90
38938;DHT22;24727;51.974;20.868;2024-02-15T06:20:57;5.40;99.90
38938;DHT22;24727;51.974;20.868;2024-02-15T06:23:25;5.40;99.90
38938;DHT22;24727;51.974;20.868;2024-02-15T06:25:53;5.40;99.90
38938;DHT22;24727;51.974;20.868;2024-02-15T06:28:20;5.50;99.90
38938;DHT22;24727;51.974;20.868;2024-02-15T06:31:08;5.40;99.90
38938;DHT22;24727;51.974;20.868;2024-02-15T06:33:52;5.40;99.90
38938;DHT22;24727;51.974;20.868;2024-02-15T06:36:50;5.40;99.90
38938;DHT22;24727;51.974;20.868;2024-02-15T06:39:35;5.30;1.40
38938;DHT22;24727;51.974;20.868;2024-02-15T06:42:07;5.20;1.00
38938;DHT22;24727;51.974;20.868;2024-02-15T06:44:33;5.00;1.00
38938;DHT22;24727;51.974;20.868;2024-02-15T06:46:58;4.90;1.00
38938;DHT22;24727;51.974;20.868;2024-02-15T06:49:25;4.90;1.00
38938;DHT22;24727;51.974;20.868;2024-02-15T06:51:51;5.20;1.00
38938;DHT22;24727;51.974;20.868;2024-02-15T06:54:17;5.30;1.00
38938;DHT22;24727;51.974;20.868;2024-02-15T06:56:48;5.20;1.00
38938;DHT22;24727;51.974;20.868;2024-02-15T06:59:14;5.20;1.00
38938;DHT22;24727;51.974;20.868;2024-02-15T07:01:43;5.10;1.00
38938;DHT22;24727;51.974;20.868;2024-02-15T07:04:09;5.00;1.00
38938;DHT22;24727;51.974;20.868;2024-02-15T07:06:39;5.20;1.00
38938;DHT22;24727;51.974;20.868;2024-02-15T07:09:05;5.20;1.00
38938;DHT22;24727;51.974;20.868;2024-02-15T07:11:35;5.20;1.00
38938;DHT22;24727;51.974;20.868;2024-02-15T07:14:01;5.00;1.00
38938;DHT22;24727;51.974;20.868;2024-02-15T07:16:27;5.20;1.00
38938;DHT22;24727;51.974;20.868;2024-02-15T07:18:53;5.30;1.00
38938;DHT22;24727;51.974;20.868;2024-02-15T07:21:22;5.20;1.00
38938;DHT22;24727;51.974;20.868;2024-02-15T07:23:55;5.30;1.00
38938;DHT22;24727;51.974;20.868;2024-02-15T07:26:24;5.20;1.00
38938;DHT22;24727;51.974;20.868;2024-02-15T07:28:54;5.20;1.00
38938;DHT22;24727;51.974;20.868;2024-02-15T07:31:20;5.20;1.00
38938;DHT22;24727;51.974;20.868;2024-02-15T07:33:47;5.30;1.00
38938;DHT22;24727;51.974;20.868;2024-02-15T07:36:20;5.30;1.00
38938;DHT22;24727;51.974;20.868;2024-02-15T07:38:50;5.40;1.00
38938;DHT22;24727;51.974;20.868;2024-02-15T07:41:22;5.40;1.00
38938;DHT22;24727;51.974;20.868;2024-02-15T07:43:51;5.50;1.00
38938;DHT22;24727;51.974;20.868;2024-02-15T07:46:19;5.50;1.00
38938;DHT22;24727;51.974;20.868;2024-02-15T07:48:46;5.60;1.00
38938;DHT22;24727;51.974;20.868;2024-02-15T07:51:16;5.50;1.00
38938;DHT22;24727;51.974;20.868;2024-02-15T07:53:43;5.60;1.00
38938;DHT22;24727;51.974;20.868;2024-02-15T07:56:10;5.50;1.00
38938;DHT22;24727;51.974;20.868;2024-02-15T07:58:44;5.60;1.00
38938;DHT22;24727;51.974;20.868;2024-02-15T08:01:16;5.80;1.00
38938;DHT22;24727;51.974;20.868;2024-02-15T08:03:42;5.60;1.00
38938;DHT22;24727;51.974;20.868;2024-02-15T08:06:11;5.50;1.00
38938;DHT22;24727;51.974;20.868;2024-02-15T08:08:39;5.40;1.00
38938;DHT22;24727;51.974;20.868;2024-02-15T08:11:09;5.70;1.00
38938;DHT22;24727;51.974;20.868;2024-02-15T08:13:48;5.80;1.00
38938;DHT22;24727;51.974;20.868;2024-02-15T08:16:22;5.80;1.00
38938;DHT22;24727;51.974;20.868;2024-02-15T08:18:49;5.80;1.00
38938;DHT22;24727;51.974;20.868;2024-02-15T08:21:18;5.80;1.00
38938;DHT22;24727;51.974;20.868;2024-02-15T08:23:43;5.90;1.00
38938;DHT22;24727;51.974;20.868;2024-02-15T08:26:10;5.80;1.00
38938;DHT22;24727;51.974;20.868;2024-02-15T08:28:38;5.90;1.00
38938;DHT22;24727;51.974;20.868;2024-02-15T08:31:04;5.80;1.00
38938;DHT22;24727;51.974;20.868;2024-02-15T08:33:31;5.80;1.00
38938;DHT22;24727;51.974;20.868;2024-02-15T08:35:57;5.90;1.00
38938;DHT22;24727;51.974;20.868;2024-02-15T08:38:24;6.00;1.00
38938;DHT22;24727;51.974;20.868;2024-02-15T08:40:50;6.00;1.00
38938;DHT22;24727;51.974;20.868;2024-02-15T08:43:16;6.10;1.00
38938;DHT22;24727;51.974;20.868;2024-02-15T08:45:42;6.10;1.00
38938;DHT22;24727;51.974;20.868;2024-02-15T08:48:09;6.20;1.00
38938;DHT22;24727;51.974;20.868;2024-02-15T08:50:35;6.20;1.00
38938;DHT22;24727;51.974;20.868;2024-02-15T08:53:01;6.00;1.00
38938;DHT22;24727;51.974;20.868;2024-02-15T08:55:31;6.00;1.00
38938;DHT22;24727;51.974;20.868;2024-02-15T08:57:57;6.10;1.00
38938;DHT22;24727;51.974;20.868;2024-02-15T09:00:25;6.00;1.00
38938;DHT22;24727;51.974;20.868;2024-02-15T09:02:52;6.30;1.00
38938;DHT22;24727;51.974;20.868;2024-02-15T09:05:19;6.30;1.00
38938;DHT22;24727;51.974;20.868;2024-02-15T09:07:47;6.30;1.00
38938;DHT22;24727;51.974;20.868;2024-02-15T09:10:14;6.50;1.00
38938;DHT22;24727;51.974;20.868;2024-02-15T09:12:43;6.30;1.00
38938;DHT22;24727;51.974;20.868;2024-02-15T09:15:12;6.20;1.00
38938;DHT22;24727;51.974;20.868;2024-02-15T09:17:38;6.20;1.00
38938;DHT22;24727;51.974;20.868;2024-02-15T09:20:10;6.50;1.00
38938;DHT22;24727;51.974;20.868;2024-02-15T09:22:47;6.30;1.00
38938;DHT22;24727;51.974;20.868;2024-02-15T09:25:13;6.40;1.00
38938;DHT22;24727;51.974;20.868;2024-02-15T09:27:40;6.40;1.00
38938;DHT22;24727;51.974;20.868;2024-02-15T09:30:07;6.50;1.00
38938;DHT22;24727;51.974;20.868;2024-02-15T09:32:36;6.50;1.00
38938;DHT22;24727;51.974;20.868;2024-02-15T09:35:02;6.50;1.00
38938;DHT22;24727;51.974;20.868;2024-02-15T09:37:28;6.50;1.00
38938;DHT22;24727;51.974;20.868;2024-02-15T09:39:54;6.50;1.00
38938;DHT22;24727;51.974;20.868;2024-02-15T09:42:25;6.60;1.00
38938;DHT22;24727;51.974;20.868;2024-02-15T09:44:52;6.50;1.00
38938;DHT22;24727;51.974;20.868;2024-02-15T09:47:18;6.50;1.00
38938;DHT22;24727;51.974;20.868;2024-02-15T09:49:44;6.50;1.00
38938;DHT22;24727;51.974;20.868;2024-02-15T09:52:10;6.50;1.00
38938;DHT22;24727;51.974;20.868;2024-02-15T09:54:42;6.70;1.00
38938;DHT22;24727;51.974;20.868;2024-02-15T09:57:09;6.60;1.00
38938;DHT22;24727;51.974;20.868;2024-02-15T09:59:39;6.60;1.00
38938;DHT22;24727;51.974;20.868;2024-02-15T10:02:06;6.80;1.00
38938;DHT22;24727;51.974;20.868;2024-02-15T10:04:42;6.70;1.00
38938;DHT22;24727;51.974;20.868;2024-02-15T10:07:08;6.70;1.00
38938;DHT22;24727;51.974;20.868;2024-02-15T10:09:34;6.70;1.00
38938;DHT22;24727;51.974;20.868;2024-02-15T10:12:03;6.80;1.00
38938;DHT22;24727;51.974;20.868;2024-02-15T10:14:32;6.80;1.00
38938;DHT22;24727;51.974;20.868;2024-02-15T10:17:09;6.70;1.00
38938;DHT22;24727;51.974;20.868;2024-02-15T10:19:39;6.80;1.00
38938;DHT22;24727;51.974;20.868;2024-02-15T10:22:06;6.90;1.00
38938;DHT22;24727;51.974;20.868;2024-02-15T10:24:32;7.00;1.00
38938;DHT22;24727;51.974;20.868;2024-02-15T10:27:02;7.00;1.00
38938;DHT22;24727;51.974;20.868;2024-02-15T10:29:30;7.10;1.00
38938;DHT22;24727;51.974;20.868;2024-02-15T10:32:01;7.20;1.00
38938;DHT22;24727;51.974;20.868;2024-02-15T10:34:31;7.20;1.00
38938;DHT22;24727;51.974;20.868;2024-02-15T10:37:13;7.20;1.00
38938;DHT22;24727;51.974;20.868;2024-02-15T10:39:40;7.40;1.00
38938;DHT22;24727;51.974;20.868;2024-02-15T10:42:09;7.50;1.00
38938;DHT22;24727;51.974;20.868;2024-02-15T10:44:38;7.50;1.00
38938;DHT22;24727;51.974;20.868;2024-02-15T10:47:07;7.60;1.00
38938;DHT22;24727;51.974;20.868;2024-02-15T10:49:34;7.80;1.00
38938;DHT22;24727;51.974;20.868;2024-02-15T10:52:02;7.90;1.00
38938;DHT22;24727;51.974;20.868;2024-02-15T10:57:06;7.60;1.00
38938;DHT22;24727;51.974;20.868;2024-02-15T10:59:35;7.40;1.00
38938;DHT22;24727;51.974;20.868;2024-02-15T11:04:45;7.60;1.00
38938;DHT22;24727;51.974;20.868;2024-02-15T11:07:13;7.80;1.00
38938;DHT22;24727;51.974;20.868;2024-02-15T11:09:39;8.00;1.00
38938;DHT22;24727;51.974;20.868;2024-02-15T11:12:06;8.00;1.00
38938;DHT22;24727;51.974;20.868;2024-02-15T11:14:35;8.10;1.00
38938;DHT22;24727;51.974;20.868;2024-02-15T11:17:01;7.90;1.00
38938;DHT22;24727;51.974;20.868;2024-02-15T11:22:15;8.10;1.00
38938;DHT22;24727;51.974;20.868;2024-02-15T11:24:53;8.20;1.00
38938;DHT22;24727;51.974;20.868;2024-02-15T11:27:29;8.40;1.00
38938;DHT22;24727;51.974;20.868;2024-02-15T11:29:55;8.50;1.00
38938;DHT22;24727;51.974;20.868;2024-02-15T11:32:54;8.60;1.00
38938;DHT22;24727;51.974;20.868;2024-02-15T11:35:24;8.60;1.00
38938;DHT22;24727;51.974;20.868;2024-02-15T11:43:10;8.80;1.00
38938;DHT22;24727;51.974;20.868;2024-02-15T11:45:36;9.00;1.00
38938;DHT22;24727;51.974;20.868;2024-02-15T11:48:10;9.20;1.00
38938;DHT22;24727;51.974;20.868;2024-02-15T11:50:39;9.30;1.00
38938;DHT22;24727;51.974;20.868;2024-02-15T11:53:06;9.20;1.00
38938;DHT22;24727;51.974;20.868;2024-02-15T11:55:42;9.40;1.00
38938;DHT22;24727;51.974;20.868;2024-02-15T11:58:08;9.40;1.00
38938;DHT22;24727;51.974;20.868;2024-02-15T12:00:36;9.40;1.00
38938;DHT22;24727;51.974;20.868;2024-02-15T12:03:21;9.60;1.00
38938;DHT22;24727;51.974;20.868;2024-02-15T12:06:06;9.60;1.00
38938;DHT22;24727;51.974;20.868;2024-02-15T12:08:52;9.80;1.00
38938;DHT22;24727;51.974;20.868;2024-02-15T12:11:37;9.60;1.00
38938;DHT22;24727;51.974;20.868;2024-02-15T12:14:22;9.40;1.00
38938;DHT22;24727;51.974;20.868;2024-02-15T12:17:08;9.50;1.00
38938;DHT22;24727;51.974;20.868;2024-02-15T12:19:54;9.60;1.00
38938;DHT22;24727;51.974;20.868;2024-02-15T12:22:36;9.80;1.00
38938;DHT22;24727;51.974;20.868;2024-02-15T12:25:06;9.90;1.00
38938;DHT22;24727;51.974;20.868;2024-02-15T12:27:43;9.90;1.00
38938;DHT22;24727;51.974;20.868;2024-02-15T12:30:24;10.10;1.00
38938;DHT22;24727;51.974;20.868;2024-02-15T12:32:52;10.20;1.00
38938;DHT22;24727;51.974;20.868;2024-02-15T12:35:34;9.90;1.00
38938;DHT22;24727;51.974;20.868;2024-02-15T12:40:33;9.70;1.00
38938;DHT22;24727;51.974;20.868;2024-02-15T12:42:59;9.70;1.00
38938;DHT22;24727;51.974;20.868;2024-02-15T12:45:32;9.80;1.00
38938;DHT22;24727;51.974;20.868;2024-02-15T12:48:04;9.90;1.00
38938;DHT22;24727;51.974;20.868;2024-02-15T12:50:31;10.00;1.00
38938;DHT22;24727;51.974;20.868;2024-02-15T12:52:57;10.10;1.00
38938;DHT22;24727;51.974;20.868;2024-02-15T12:55:39;10.40;1.00
38938;DHT22;24727;51.974;20.868;2024-02-15T12:58:12;10.40;1.00
38938;DHT22;24727;51.974;20.868;2024-02-15T13:00:40;10.20;1.00
38938;DHT22;24727;51.974;20.868;2024-02-15T13:03:08;10.20;1.00
38938;DHT22;24727;51.974;20.868;2024-02-15T13:05:37;10.40;1.00
38938;DHT22;24727;51.974;20.868;2024-02-15T13:08:03;10.40;1.00
38938;DHT22;24727;51.974;20.868;2024-02-15T13:10:38;10.50;1.00
38938;DHT22;24727;51.974;20.868;2024-02-15T13:13:07;10.50;1.00
38938;DHT22;24727;51.974;20.868;2024-02-15T13:15:35;10.60;1.00
38938;DHT22;24727;51.974;20.868;2024-02-15T13:18:03;10.70;1.40
38938;DHT22;24727;51.974;20.868;2024-02-15T13:20:35;10.90;1.00
38938;DHT22;24727;51.974;20.868;2024-02-15T13:23:10;11.10;1.00
38938;DHT22;24727;51.974;20.868;2024-02-15T13:25:49;11.10;1.00
38938;DHT22;24727;51.974;20.868;2024-02-15T13:28:15;11.30;1.00
38938;DHT22;24727;51.974;20.868;2024-02-15T13:30:42;11.30;1.00
38938;DHT22;24727;51.974;20.868;2024-02-15T13:33:11;11.20;1.00
38938;DHT22;24727;51.974;20.868;2024-02-15T13:35:37;11.10;99.90
38938;DHT22;24727;51.974;20.868;2024-02-15T13:38:04;11.10;1.00
38938;DHT22;24727;51.974;20.868;2024-02-15T13:40:30;11.20;1.00
38938;DHT22;24727;51.974;20.868;2024-02-15T13:42:58;11.30;1.00
38938;DHT22;24727;51.974;20.868;2024-02-15T13:45:28;11.30;1.00
38938;DHT22;24727;51.974;20.868;2024-02-15T13:48:03;11.30;1.00
38938;DHT22;24727;51.974;20.868;2024-02-15T13:50:51;11.30;1.00
38938;DHT22;24727;51.974;20.868;2024-02-15T13:53:18;11.40;1.00
38938;DHT22;24727;51.974;20.868;2024-02-15T13:55:44;11.40;1.00
38938;DHT22;24727;51.974;20.868;2024-02-15T13:58:10;11.30;1.40
38938;DHT22;24727;51.974;20.868;2024-02-15T14:00:40;11.40;1.00
38938;DHT22;24727;51.974;20.868;2024-02-15T14:03:08;11.40;99.90
38938;DHT22;24727;51.974;20.868;2024-02-15T14:05:35;11.40;1.00
38938;DHT22;24727;51.974;20.868;2024-02-15T14:08:05;11.30;99.90
38938;DHT22;24727;51.974;20.868;2024-02-15T14:10:32;11.20;1.00
38938;DHT22;24727;51.974;20.868;2024-02-15T14:13:00;11.30;1.00
38938;DHT22;24727;51.974;20.868;2024-02-15T14:15:29;11.10;1.00
38938;DHT22;24727;51.974;20.868;2024-02-15T14:17:55;11.10;1.00
38938;DHT22;24727;51.974;20.868;2024-02-15T14:20:23;11.00;1.00
38938;DHT22;24727;51.974;20.868;2024-02-15T14:22:50;10.90;1.00
38938;DHT22;24727;51.974;20.868;2024-02-15T14:25:23;11.00;1.00
38938;DHT22;24727;51.974;20.868;2024-02-15T14:27:49;11.00;99.90
38938;DHT22;24727;51.974;20.868;2024-02-15T14:30:15;10.90;99.90
38938;DHT22;24727;51.974;20.868;2024-02-15T14:32:59;11.10;1.00
38938;DHT22;24727;51.974;20.868;2024-02-15T14:35:37;11.20;1.00
38938;DHT22;24727;51.974;20.868;2024-02-15T14:38:10;11.30;1.00
38938;DHT22;24727;51.974;20.868;2024-02-15T14:40:41;11.20;1.00
38938;DHT22;24727;51.974;20.868;2024-02-15T14:43:08;11.20;1.00
38938;DHT22;24727;51.974;20.868;2024-02-15T14:45:38;11.00;99.90
38938;DHT22;24727;51.974;20.868;2024-02-15T14:48:07;10.90;99.90
38938;DHT22;24727;51.974;20.868;2024-02-15T14:50:39;11.00;1.00
38938;DHT22;24727;51.974;20.868;2024-02-15T14:53:05;11.00;1.00
38938;DHT22;24727;51.974;20.868;2024-02-15T14:55:34;11.10;1.00
38938;DHT22;24727;51.974;20.868;2024-02-15T14:58:00;11.20;1.00
38938;DHT22;24727;51.974;20.868;2024-02-15T15:00:25;11.10;1.00
38938;DHT22;24727;51.974;20.868;2024-02-15T15:02:53;10.90;1.40
38938;DHT22;24727;51.974;20.868;2024-02-15T15:05:22;11.00;1.00
38938;DHT22;24727;51.974;20.868;2024-02-15T15:08:07;10.90;1.00
38938;DHT22;24727;51.974;20.868;2024-02-15T15:10:51;10.90;1.00
38938;DHT22;24727;51.974;20.868;2024-02-15T15:13:36;11.00;1.40
38938;DHT22;24727;51.974;20.868;2024-02-15T15:16:02;10.80;1.40
38938;DHT22;24727;51.974;20.868;2024-02-15T15:18:31;10.60;99.90
38938;DHT22;24727;51.974;20.868;2024-02-15T15:20:58;10.60;1.00
38938;DHT22;24727;51.974;20.868;2024-02-15T15:23:26;10.80;1.00
38938;DHT22;24727;51.974;20.868;2024-02-15T15:25:51;10.70;1.00
38938;DHT22;24727;51.974;20.868;2024-02-15T15:28:17;10.70;1.00
38938;DHT22;24727;51.974;20.868;2024-02-15T15:30:44;10.70;1.00
38938;DHT22;24727;51.974;20.868;2024-02-15T15:33:17;10.50;1.00
38938;DHT22;24727;51.974;20.868;2024-02-15T15:35:44;10.50;1.00
38938;DHT22;24727;51.974;20.868;2024-02-15T15:38:11;10.70;1.00
38938;DHT22;24727;51.974;20.868;2024-02-15T15:40:37;10.40;1.00
38938;DHT22;24727;51.974;20.868;2024-02-15T15:43:04;10.40;1.00
38938;DHT22;24727;51.974;20.868;2024-02-15T15:45:37;10.30;1.00
38938;DHT22;24727;51.974;20.868;2024-02-15T15:48:03;10.30;1.00
38938;DHT22;24727;51.974;20.868;2024-02-15T15:50:29;10.10;1.00
38938;DHT22;24727;51.974;20.868;2024-02-15T15:53:09;10.30;1.00
38938;DHT22;24727;51.974;20.868;2024-02-15T15:55:38;10.30;99.90
38938;DHT22;24727;51.974;20.868;2024-02-15T15:58:04;10.20;99.90
38938;DHT22;24727;51.974;20.868;2024-02-15T16:00:33;10.40;1.00
38938;DHT22;24727;51.974;20.868;2024-02-15T16:03:01;10.40;1.00